sensor_id;sensor_type;location;lat;lon;timestamp;P1;durP1;ratioP1;P2;durP2;ratioP2
52962;SDS011;38827;53.024;6.596;2023-03-01T00:01:26;29.23;;;21.58;;
52962;SDS011;38827;53.024;6.596;2023-03-01T00:03:54;32.17;;;21.25;;
52962;SDS011;38827;53.024;6.596;2023-03-01T00:06:21;32.10;;;21.83;;
52962;SDS011;38827;53.024;6.596;2023-03-01T00:08:47;33.13;;;21.98;;
52962;SDS011;38827;53.024;6.596;2023-03-01T00:13:43;32.55;;;21.85;;
52962;SDS011;38827;53.024;6.596;2023-03-01T00:16:18;33.58;;;21.73;;
52962;SDS011;38827;53.024;6.596;2023-03-01T00:18:47;32.33;;;21.15;;
52962;SDS011;38827;53.024;6.596;2023-03-01T00:21:12;29.05;;;20.75;;
52962;SDS011;38827;53.024;6.596;2023-03-01T00:23:38;30.95;;;21.20;;
52962;SDS011;38827;53.024;6.596;2023-03-01T00:26:05;30.63;;;21.55;;
52962;SDS011;38827;53.024;6.596;2023-03-01T00:28:33;30.08;;;21.73;;
52962;SDS011;38827;53.024;6.596;2023-03-01T00:31:02;36.40;;;21.83;;
52962;SDS011;38827;53.024;6.596;2023-03-01T00:33:32;43.08;;;25.75;;
52962;SDS011;38827;53.024;6.596;2023-03-01T00:35:59;243.88;;;33.13;;
52962;SDS011;38827;53.024;6.596;2023-03-01T00:38:25;169.30;;;30.67;;
52962;SDS011;38827;53.024;6.596;2023-03-01T00:40:54;290.50;;;31.65;;
52962;SDS011;38827;53.024;6.596;2023-03-01T00:43:19;189.85;;;28.00;;
52962;SDS011;38827;53.024;6.596;2023-03-01T00:45:45;192.63;;;29.70;;
52962;SDS011;38827;53.024;6.596;2023-03-01T00:48:11;194.10;;;28.38;;
52962;SDS011;38827;53.024;6.596;2023-03-01T00:50:36;180.73;;;28.75;;
52962;SDS011;38827;53.024;6.596;2023-03-01T00:53:02;248.55;;;30.35;;
52962;SDS011;38827;53.024;6.596;2023-03-01T00:55:28;166.85;;;29.77;;
52962;SDS011;38827;53.024;6.596;2023-03-01T00:57:53;291.73;;;29.42;;
52962;SDS011;38827;53.024;6.596;2023-03-01T01:00:22;301.25;;;30.40;;
52962;SDS011;38827;53.024;6.596;2023-03-01T01:02:48;397.08;;;27.85;;
52962;SDS011;38827;53.024;6.596;2023-03-01T01:05:23;328.60;;;26.33;;
52962;SDS011;38827;53.024;6.596;2023-03-01T01:07:52;281.42;;;26.80;;
52962;SDS011;38827;53.024;6.596;2023-03-01T01:10:20;356.73;;;27.80;;
52962;SDS011;38827;53.024;6.596;2023-03-01T01:12:57;249.52;;;24.55;;
52962;SDS011;38827;53.024;6.596;2023-03-01T01:15:33;168.95;;;21.67;;
52962;SDS011;38827;53.024;6.596;2023-03-01T01:18:05;108.90;;;20.15;;
52962;SDS011;38827;53.024;6.596;2023-03-01T01:20:34;129.80;;;19.58;;
52962;SDS011;38827;53.024;6.596;2023-03-01T01:23:15;69.07;;;18.70;;
52962;SDS011;38827;53.024;6.596;2023-03-01T01:26:05;122.97;;;20.70;;
52962;SDS011;38827;53.024;6.596;2023-03-01T01:28:34;167.80;;;44.25;;
52962;SDS011;38827;53.024;6.596;2023-03-01T01:31:29;105.78;;;34.05;;
52962;SDS011;38827;53.024;6.596;2023-03-01T01:34:01;90.18;;;27.30;;
52962;SDS011;38827;53.024;6.596;2023-03-01T01:36:52;90.80;;;27.02;;
52962;SDS011;38827;53.024;6.596;2023-03-01T01:39:25;99.80;;;39.85;;
52962;SDS011;38827;53.024;6.596;2023-03-01T01:41:51;89.38;;;40.53;;
52962;SDS011;38827;53.024;6.596;2023-03-01T01:44:21;77.25;;;38.03;;
52962;SDS011;38827;53.024;6.596;2023-03-01T01:46:50;44.83;;;20.23;;
52962;SDS011;38827;53.024;6.596;2023-03-01T01:51:59;27.77;;;19.48;;
52962;SDS011;38827;53.024;6.596;2023-03-01T01:54:35;27.00;;;19.13;;
52962;SDS011;38827;53.024;6.596;2023-03-01T01:57:11;26.23;;;18.58;;
52962;SDS011;38827;53.024;6.596;2023-03-01T01:59:41;26.02;;;18.77;;
52962;SDS011;38827;53.024;6.596;2023-03-01T02:02:10;26.88;;;19.30;;
52962;SDS011;38827;53.024;6.596;2023-03-01T02:04:37;30.10;;;20.27;;
52962;SDS011;38827;53.024;6.596;2023-03-01T02:07:25;27.27;;;19.30;;
52962;SDS011;38827;53.024;6.596;2023-03-01T02:10:02;45.08;;;19.67;;
52962;SDS011;38827;53.024;6.596;2023-03-01T02:12:41;33.70;;;20.30;;
52962;SDS011;38827;53.024;6.596;2023-03-01T02:15:10;28.40;;;19.48;;
52962;SDS011;38827;53.024;6.596;2023-03-01T02:17:45;57.83;;;20.92;;
52962;SDS011;38827;53.024;6.596;2023-03-01T02:20:18;107.82;;;21.85;;
52962;SDS011;38827;53.024;6.596;2023-03-01T02:22:56;101.05;;;20.90;;
52962;SDS011;38827;53.024;6.596;2023-03-01T02:30:52;124.75;;;20.15;;
52962;SDS011;38827;53.024;6.596;2023-03-01T02:33:38;82.05;;;20.77;;
52962;SDS011;38827;53.024;6.596;2023-03-01T02:38:32;117.75;;;20.42;;
52962;SDS011;38827;53.024;6.596;2023-03-01T02:41:07;108.63;;;20.52;;
52962;SDS011;38827;53.024;6.596;2023-03-01T02:43:35;133.40;;;22.40;;
52962;SDS011;38827;53.024;6.596;2023-03-01T02:46:03;118.53;;;21.57;;
52962;SDS011;38827;53.024;6.596;2023-03-01T02:48:47;119.47;;;21.23;;
52962;SDS011;38827;53.024;6.596;2023-03-01T02:56:19;77.65;;;18.52;;
52962;SDS011;38827;53.024;6.596;2023-03-01T02:58:46;100.25;;;20.20;;
52962;SDS011;38827;53.024;6.596;2023-03-01T03:01:16;97.25;;;20.95;;
52962;SDS011;38827;53.024;6.596;2023-03-01T03:03:46;103.20;;;18.85;;
52962;SDS011;38827;53.024;6.596;2023-03-01T03:06:15;75.28;;;17.92;;
52962;SDS011;38827;53.024;6.596;2023-03-01T03:08:41;71.60;;;19.52;;
52962;SDS011;38827;53.024;6.596;2023-03-01T03:11:06;51.08;;;18.65;;
52962;SDS011;38827;53.024;6.596;2023-03-01T03:13:32;61.60;;;17.92;;
52962;SDS011;38827;53.024;6.596;2023-03-01T03:15:57;59.22;;;17.80;;
52962;SDS011;38827;53.024;6.596;2023-03-01T03:18:23;35.63;;;18.23;;
52962;SDS011;38827;53.024;6.596;2023-03-01T03:20:53;44.58;;;17.95;;
52962;SDS011;38827;53.024;6.596;2023-03-01T03:23:20;57.85;;;18.88;;
52962;SDS011;38827;53.024;6.596;2023-03-01T03:25:48;30.45;;;17.95;;
52962;SDS011;38827;53.024;6.596;2023-03-01T03:28:15;31.92;;;19.02;;
52962;SDS011;38827;53.024;6.596;2023-03-01T03:30:41;32.13;;;18.15;;
52962;SDS011;38827;53.024;6.596;2023-03-01T03:33:08;26.52;;;18.73;;
52962;SDS011;38827;53.024;6.596;2023-03-01T03:35:39;25.00;;;18.08;;
52962;SDS011;38827;53.024;6.596;2023-03-01T03:38:10;24.58;;;17.83;;
52962;SDS011;38827;53.024;6.596;2023-03-01T03:41:06;26.17;;;19.00;;
52962;SDS011;38827;53.024;6.596;2023-03-01T03:43:35;25.75;;;18.33;;
52962;SDS011;38827;53.024;6.596;2023-03-01T03:46:02;24.50;;;17.67;;
52962;SDS011;38827;53.024;6.596;2023-03-01T03:48:35;26.88;;;18.58;;
52962;SDS011;38827;53.024;6.596;2023-03-01T03:51:21;25.70;;;17.60;;
52962;SDS011;38827;53.024;6.596;2023-03-01T03:53:59;24.65;;;17.48;;
52962;SDS011;38827;53.024;6.596;2023-03-01T03:56:31;22.17;;;17.40;;
52962;SDS011;38827;53.024;6.596;2023-03-01T03:59:05;20.65;;;16.20;;
52962;SDS011;38827;53.024;6.596;2023-03-01T04:01:36;18.58;;;15.15;;
52962;SDS011;38827;53.024;6.596;2023-03-01T04:07:22;19.98;;;15.30;;
52962;SDS011;38827;53.024;6.596;2023-03-01T04:09:52;17.70;;;14.23;;
52962;SDS011;38827;53.024;6.596;2023-03-01T04:12:30;21.10;;;15.63;;
52962;SDS011;38827;53.024;6.596;2023-03-01T04:15:04;29.10;;;16.35;;
52962;SDS011;38827;53.024;6.596;2023-03-01T04:17:45;20.70;;;15.35;;
52962;SDS011;38827;53.024;6.596;2023-03-01T04:20:17;22.48;;;16.83;;
52962;SDS011;38827;53.024;6.596;2023-03-01T04:22:43;22.33;;;17.00;;
52962;SDS011;38827;53.024;6.596;2023-03-01T04:25:13;21.50;;;16.05;;
52962;SDS011;38827;53.024;6.596;2023-03-01T04:27:40;22.83;;;17.33;;
52962;SDS011;38827;53.024;6.596;2023-03-01T04:32:32;26.17;;;16.92;;
52962;SDS011;38827;53.024;6.596;2023-03-01T04:34:59;24.35;;;18.02;;
52962;SDS011;38827;53.024;6.596;2023-03-01T04:37:25;22.48;;;16.77;;
52962;SDS011;38827;53.024;6.596;2023-03-01T04:39:51;28.63;;;17.40;;
52962;SDS011;38827;53.024;6.596;2023-03-01T04:42:17;27.67;;;17.58;;
52962;SDS011;38827;53.024;6.596;2023-03-01T04:44:44;25.25;;;17.10;;
52962;SDS011;38827;53.024;6.596;2023-03-01T04:47:10;35.42;;;17.80;;
52962;SDS011;38827;53.024;6.596;2023-03-01T04:49:40;30.75;;;16.13;;
52962;SDS011;38827;53.024;6.596;2023-03-01T04:52:11;39.95;;;17.27;;
52962;SDS011;38827;53.024;6.596;2023-03-01T04:57:33;31.92;;;16.70;;
52962;SDS011;38827;53.024;6.596;2023-03-01T04:59:59;27.20;;;17.15;;
52962;SDS011;38827;53.024;6.596;2023-03-01T05:02:25;35.60;;;17.58;;
52962;SDS011;38827;53.024;6.596;2023-03-01T05:04:50;35.30;;;17.07;;
52962;SDS011;38827;53.024;6.596;2023-03-01T05:07:16;20.83;;;16.50;;
52962;SDS011;38827;53.024;6.596;2023-03-01T05:09:47;26.73;;;19.88;;
52962;SDS011;38827;53.024;6.596;2023-03-01T05:12:14;22.40;;;17.42;;
52962;SDS011;38827;53.024;6.596;2023-03-01T05:14:40;22.77;;;16.65;;
52962;SDS011;38827;53.024;6.596;2023-03-01T05:17:06;24.17;;;18.58;;
52962;SDS011;38827;53.024;6.596;2023-03-01T05:19:33;24.48;;;19.42;;
52962;SDS011;38827;53.024;6.596;2023-03-01T05:21:58;23.27;;;18.25;;
52962;SDS011;38827;53.024;6.596;2023-03-01T05:24:29;21.27;;;17.25;;
52962;SDS011;38827;53.024;6.596;2023-03-01T05:26:55;19.25;;;15.10;;
52962;SDS011;38827;53.024;6.596;2023-03-01T05:29:22;18.88;;;14.70;;
52962;SDS011;38827;53.024;6.596;2023-03-01T05:31:55;19.25;;;15.43;;
52962;SDS011;38827;53.024;6.596;2023-03-01T05:34:26;19.60;;;14.93;;
52962;SDS011;38827;53.024;6.596;2023-03-01T05:36:57;18.52;;;14.45;;
52962;SDS011;38827;53.024;6.596;2023-03-01T05:39:24;20.25;;;15.10;;
52962;SDS011;38827;53.024;6.596;2023-03-01T05:41:54;17.38;;;14.65;;
52962;SDS011;38827;53.024;6.596;2023-03-01T05:44:27;17.30;;;14.27;;
52962;SDS011;38827;53.024;6.596;2023-03-01T05:46:53;18.40;;;14.02;;
52962;SDS011;38827;53.024;6.596;2023-03-01T05:49:20;19.88;;;14.85;;
52962;SDS011;38827;53.024;6.596;2023-03-01T05:51:49;17.75;;;14.10;;
52962;SDS011;38827;53.024;6.596;2023-03-01T05:54:16;18.15;;;14.48;;
52962;SDS011;38827;53.024;6.596;2023-03-01T05:56:43;18.88;;;14.25;;
52962;SDS011;38827;53.024;6.596;2023-03-01T05:59:10;18.33;;;14.70;;
52962;SDS011;38827;53.024;6.596;2023-03-01T06:01:36;22.17;;;16.45;;
52962;SDS011;38827;53.024;6.596;2023-03-01T06:04:02;22.83;;;17.13;;
52962;SDS011;38827;53.024;6.596;2023-03-01T06:08:58;21.65;;;15.63;;
52962;SDS011;38827;53.024;6.596;2023-03-01T06:11:23;22.92;;;16.83;;
52962;SDS011;38827;53.024;6.596;2023-03-01T06:13:52;23.45;;;16.50;;
52962;SDS011;38827;53.024;6.596;2023-03-01T06:16:19;21.15;;;16.05;;
52962;SDS011;38827;53.024;6.596;2023-03-01T06:18:44;19.80;;;15.05;;
52962;SDS011;38827;53.024;6.596;2023-03-01T06:21:10;20.38;;;15.73;;
52962;SDS011;38827;53.024;6.596;2023-03-01T06:26:07;18.97;;;14.60;;
52962;SDS011;38827;53.024;6.596;2023-03-01T06:28:34;17.85;;;14.13;;
52962;SDS011;38827;53.024;6.596;2023-03-01T06:31:00;17.48;;;13.85;;
52962;SDS011;38827;53.024;6.596;2023-03-01T06:33:26;18.77;;;14.13;;
52962;SDS011;38827;53.024;6.596;2023-03-01T06:35:54;18.80;;;14.27;;
52962;SDS011;38827;53.024;6.596;2023-03-01T06:38:21;18.05;;;14.57;;
52962;SDS011;38827;53.024;6.596;2023-03-01T06:40:52;19.10;;;14.80;;
52962;SDS011;38827;53.024;6.596;2023-03-01T06:43:19;18.27;;;14.45;;
52962;SDS011;38827;53.024;6.596;2023-03-01T06:45:45;19.93;;;15.80;;
52962;SDS011;38827;53.024;6.596;2023-03-01T06:48:11;20.00;;;14.88;;
52962;SDS011;38827;53.024;6.596;2023-03-01T06:50:36;18.88;;;15.60;;
52962;SDS011;38827;53.024;6.596;2023-03-01T06:53:03;19.20;;;15.50;;
52962;SDS011;38827;53.024;6.596;2023-03-01T06:55:29;19.13;;;15.30;;
52962;SDS011;38827;53.024;6.596;2023-03-01T06:57:55;20.52;;;15.48;;
52962;SDS011;38827;53.024;6.596;2023-03-01T07:00:24;22.00;;;16.23;;
52962;SDS011;38827;53.024;6.596;2023-03-01T07:03:09;19.55;;;15.95;;
52962;SDS011;38827;53.024;6.596;2023-03-01T07:05:48;19.95;;;16.42;;
52962;SDS011;38827;53.024;6.596;2023-03-01T07:08:14;18.70;;;15.32;;
52962;SDS011;38827;53.024;6.596;2023-03-01T07:10:40;15.80;;;13.40;;
52962;SDS011;38827;53.024;6.596;2023-03-01T07:13:05;16.50;;;13.52;;
52962;SDS011;38827;53.024;6.596;2023-03-01T07:15:32;13.80;;;11.75;;
52962;SDS011;38827;53.024;6.596;2023-03-01T07:17:58;13.52;;;11.77;;
52962;SDS011;38827;53.024;6.596;2023-03-01T07:20:23;15.02;;;11.85;;
52962;SDS011;38827;53.024;6.596;2023-03-01T07:22:51;13.30;;;10.95;;
52962;SDS011;38827;53.024;6.596;2023-03-01T07:25:17;13.27;;;11.02;;
52962;SDS011;38827;53.024;6.596;2023-03-01T07:27:42;14.82;;;11.35;;
52962;SDS011;38827;53.024;6.596;2023-03-01T07:30:08;13.93;;;11.55;;
52962;SDS011;38827;53.024;6.596;2023-03-01T07:32:34;13.25;;;11.52;;
52962;SDS011;38827;53.024;6.596;2023-03-01T07:35:00;13.32;;;11.18;;
52962;SDS011;38827;53.024;6.596;2023-03-01T07:37:29;13.02;;;11.30;;
52962;SDS011;38827;53.024;6.596;2023-03-01T07:39:54;15.15;;;11.60;;
52962;SDS011;38827;53.024;6.596;2023-03-01T07:42:20;13.07;;;11.68;;
52962;SDS011;38827;53.024;6.596;2023-03-01T07:44:46;12.35;;;10.50;;
52962;SDS011;38827;53.024;6.596;2023-03-01T07:47:12;11.27;;;10.07;;
52962;SDS011;38827;53.024;6.596;2023-03-01T07:49:40;12.15;;;10.48;;
52962;SDS011;38827;53.024;6.596;2023-03-01T07:52:16;15.35;;;11.75;;
52962;SDS011;38827;53.024;6.596;2023-03-01T07:54:42;15.10;;;12.85;;
52962;SDS011;38827;53.024;6.596;2023-03-01T07:57:14;16.23;;;14.52;;
52962;SDS011;38827;53.024;6.596;2023-03-01T07:59:40;14.07;;;12.57;;
52962;SDS011;38827;53.024;6.596;2023-03-01T08:02:06;14.30;;;12.00;;
52962;SDS011;38827;53.024;6.596;2023-03-01T08:04:33;14.15;;;12.05;;
52962;SDS011;38827;53.024;6.596;2023-03-01T08:06:58;13.45;;;11.75;;
52962;SDS011;38827;53.024;6.596;2023-03-01T08:09:24;17.25;;;14.00;;
52962;SDS011;38827;53.024;6.596;2023-03-01T08:11:50;15.90;;;13.25;;
52962;SDS011;38827;53.024;6.596;2023-03-01T08:14:15;20.48;;;16.42;;
52962;SDS011;38827;53.024;6.596;2023-03-01T08:16:42;29.60;;;21.77;;
52962;SDS011;38827;53.024;6.596;2023-03-01T08:19:08;19.88;;;15.82;;
52962;SDS011;38827;53.024;6.596;2023-03-01T08:21:35;21.50;;;16.38;;
52962;SDS011;38827;53.024;6.596;2023-03-01T08:24:02;18.65;;;15.80;;
52962;SDS011;38827;53.024;6.596;2023-03-01T08:26:30;20.05;;;15.60;;
52962;SDS011;38827;53.024;6.596;2023-03-01T08:28:57;19.73;;;15.70;;
52962;SDS011;38827;53.024;6.596;2023-03-01T08:34:20;16.40;;;13.95;;
52962;SDS011;38827;53.024;6.596;2023-03-01T08:37:02;16.40;;;14.48;;
52962;SDS011;38827;53.024;6.596;2023-03-01T08:40:03;17.27;;;15.07;;
52962;SDS011;38827;53.024;6.596;2023-03-01T08:42:43;19.40;;;15.93;;
52962;SDS011;38827;53.024;6.596;2023-03-01T08:45:20;18.05;;;14.82;;
52962;SDS011;38827;53.024;6.596;2023-03-01T08:47:45;16.48;;;14.55;;
52962;SDS011;38827;53.024;6.596;2023-03-01T08:50:14;18.15;;;16.23;;
52962;SDS011;38827;53.024;6.596;2023-03-01T08:52:40;17.40;;;15.52;;
52962;SDS011;38827;53.024;6.596;2023-03-01T08:55:11;16.75;;;14.95;;
52962;SDS011;38827;53.024;6.596;2023-03-01T08:57:37;18.40;;;15.27;;
52962;SDS011;38827;53.024;6.596;2023-03-01T09:02:59;17.17;;;15.30;;
52962;SDS011;38827;53.024;6.596;2023-03-01T09:08:49;18.10;;;16.13;;
52962;SDS011;38827;53.024;6.596;2023-03-01T09:11:20;17.42;;;15.48;;
52962;SDS011;38827;53.024;6.596;2023-03-01T09:13:48;19.08;;;15.75;;
52962;SDS011;38827;53.024;6.596;2023-03-01T09:16:17;23.20;;;16.70;;
52962;SDS011;38827;53.024;6.596;2023-03-01T09:18:57;19.60;;;16.05;;
52962;SDS011;38827;53.024;6.596;2023-03-01T09:21:23;19.50;;;16.57;;
52962;SDS011;38827;53.024;6.596;2023-03-01T09:23:49;19.30;;;16.60;;
52962;SDS011;38827;53.024;6.596;2023-03-01T09:26:18;18.98;;;16.23;;
52962;SDS011;38827;53.024;6.596;2023-03-01T09:32:00;19.38;;;15.60;;
52962;SDS011;38827;53.024;6.596;2023-03-01T09:34:32;18.50;;;15.52;;
52962;SDS011;38827;53.024;6.596;2023-03-01T09:40:01;19.05;;;16.35;;
52962;SDS011;38827;53.024;6.596;2023-03-01T09:42:34;18.92;;;15.68;;
52962;SDS011;38827;53.024;6.596;2023-03-01T09:45:02;18.45;;;16.50;;
52962;SDS011;38827;53.024;6.596;2023-03-01T09:47:35;18.13;;;16.00;;
52962;SDS011;38827;53.024;6.596;2023-03-01T09:50:20;17.17;;;15.25;;
52962;SDS011;38827;53.024;6.596;2023-03-01T09:56:05;18.63;;;15.40;;
52962;SDS011;38827;53.024;6.596;2023-03-01T09:58:39;19.63;;;15.48;;
52962;SDS011;38827;53.024;6.596;2023-03-01T10:09:48;18.83;;;16.20;;
52962;SDS011;38827;53.024;6.596;2023-03-01T10:12:18;18.77;;;15.73;;
52962;SDS011;38827;53.024;6.596;2023-03-01T10:20:17;16.88;;;15.10;;
52962;SDS011;38827;53.024;6.596;2023-03-01T10:22:45;18.65;;;16.02;;
52962;SDS011;38827;53.024;6.596;2023-03-01T10:30:56;16.80;;;15.05;;
52962;SDS011;38827;53.024;6.596;2023-03-01T10:36:24;19.13;;;16.45;;
52962;SDS011;38827;53.024;6.596;2023-03-01T10:39:00;20.70;;;17.20;;
52962;SDS011;38827;53.024;6.596;2023-03-01T10:42:18;17.10;;;14.93;;
52962;SDS011;38827;53.024;6.596;2023-03-01T10:51:24;16.55;;;14.85;;
52962;SDS011;38827;53.024;6.596;2023-03-01T10:54:04;17.15;;;14.60;;
52962;SDS011;38827;53.024;6.596;2023-03-01T11:05:18;16.87;;;11.73;;
52962;SDS011;38827;53.024;6.596;2023-03-01T11:10:28;13.90;;;12.32;;
52962;SDS011;38827;53.024;6.596;2023-03-01T11:16:01;12.85;;;10.63;;
52962;SDS011;38827;53.024;6.596;2023-03-01T11:18:30;13.52;;;11.75;;
52962;SDS011;38827;53.024;6.596;2023-03-01T11:20:58;12.32;;;11.02;;
52962;SDS011;38827;53.024;6.596;2023-03-01T11:23:28;10.90;;;9.85;;
52962;SDS011;38827;53.024;6.596;2023-03-01T11:26:05;13.20;;;11.80;;
52962;SDS011;38827;53.024;6.596;2023-03-01T11:28:53;13.60;;;12.13;;
52962;SDS011;38827;53.024;6.596;2023-03-01T11:52:59;12.98;;;11.13;;
52962;SDS011;38827;53.024;6.596;2023-03-01T11:55:36;13.95;;;11.60;;
52962;SDS011;38827;53.024;6.596;2023-03-01T12:23:20;16.17;;;11.45;;
52962;SDS011;38827;53.024;6.596;2023-03-01T12:38:01;14.50;;;10.50;;
52962;SDS011;38827;53.024;6.596;2023-03-01T12:43:21;13.35;;;10.38;;
52962;SDS011;38827;53.024;6.596;2023-03-01T12:45:57;12.07;;;10.10;;
52962;SDS011;38827;53.024;6.596;2023-03-01T12:48:50;12.00;;;10.70;;
52962;SDS011;38827;53.024;6.596;2023-03-01T12:51:32;12.95;;;10.88;;
52962;SDS011;38827;53.024;6.596;2023-03-01T12:54:00;12.10;;;10.65;;
52962;SDS011;38827;53.024;6.596;2023-03-01T12:56:40;10.73;;;9.63;;
52962;SDS011;38827;53.024;6.596;2023-03-01T12:59:15;12.07;;;10.77;;
52962;SDS011;38827;53.024;6.596;2023-03-01T13:08:02;12.90;;;10.88;;
52962;SDS011;38827;53.024;6.596;2023-03-01T13:10:56;15.52;;;11.20;;
52962;SDS011;38827;53.024;6.596;2023-03-01T13:19:33;12.98;;;10.15;;
52962;SDS011;38827;53.024;6.596;2023-03-01T13:25:15;24.05;;;11.48;;
52962;SDS011;38827;53.024;6.596;2023-03-01T13:27:46;16.70;;;11.43;;
52962;SDS011;38827;53.024;6.596;2023-03-01T13:36:09;13.02;;;11.30;;
52962;SDS011;38827;53.024;6.596;2023-03-01T13:42:00;13.60;;;12.20;;
52962;SDS011;38827;53.024;6.596;2023-03-01T13:44:44;14.70;;;11.40;;
52962;SDS011;38827;53.024;6.596;2023-03-01T13:47:16;21.27;;;11.90;;
52962;SDS011;38827;53.024;6.596;2023-03-01T13:53:00;13.52;;;10.68;;
52962;SDS011;38827;53.024;6.596;2023-03-01T14:01:25;12.27;;;10.93;;
52962;SDS011;38827;53.024;6.596;2023-03-01T14:03:51;12.63;;;10.85;;
52962;SDS011;38827;53.024;6.596;2023-03-01T14:14:44;13.18;;;11.30;;
52962;SDS011;38827;53.024;6.596;2023-03-01T14:20:21;13.48;;;11.02;;
52962;SDS011;38827;53.024;6.596;2023-03-01T14:32:31;11.25;;;9.90;;
52962;SDS011;38827;53.024;6.596;2023-03-01T14:35:00;10.65;;;9.38;;
52962;SDS011;38827;53.024;6.596;2023-03-01T14:37:40;11.43;;;9.55;;
52962;SDS011;38827;53.024;6.596;2023-03-01T14:40:28;10.18;;;9.05;;
52962;SDS011;38827;53.024;6.596;2023-03-01T14:45:32;10.55;;;8.98;;
52962;SDS011;38827;53.024;6.596;2023-03-01T14:48:02;10.83;;;8.93;;
52962;SDS011;38827;53.024;6.596;2023-03-01T14:53:03;10.40;;;9.30;;
52962;SDS011;38827;53.024;6.596;2023-03-01T15:04:46;10.90;;;9.70;;
52962;SDS011;38827;53.024;6.596;2023-03-01T15:07:22;11.90;;;10.63;;
52962;SDS011;38827;53.024;6.596;2023-03-01T15:10:02;11.55;;;10.35;;
52962;SDS011;38827;53.024;6.596;2023-03-01T15:12:46;12.27;;;10.98;;
52962;SDS011;38827;53.024;6.596;2023-03-01T15:18:51;12.75;;;11.05;;
52962;SDS011;38827;53.024;6.596;2023-03-01T15:21:15;13.88;;;11.18;;
52962;SDS011;38827;53.024;6.596;2023-03-01T15:26:37;17.05;;;13.70;;
52962;SDS011;38827;53.024;6.596;2023-03-01T15:32:36;14.77;;;12.02;;
52962;SDS011;38827;53.024;6.596;2023-03-01T15:35:38;14.70;;;12.57;;
52962;SDS011;38827;53.024;6.596;2023-03-01T15:38:33;17.83;;;14.50;;
52962;SDS011;38827;53.024;6.596;2023-03-01T15:41:26;16.20;;;12.77;;
52962;SDS011;38827;53.024;6.596;2023-03-01T15:49:52;16.98;;;13.75;;
52962;SDS011;38827;53.024;6.596;2023-03-01T15:52:21;16.92;;;13.95;;
52962;SDS011;38827;53.024;6.596;2023-03-01T15:55:02;18.77;;;14.45;;
52962;SDS011;38827;53.024;6.596;2023-03-01T15:57:29;19.50;;;15.63;;
52962;SDS011;38827;53.024;6.596;2023-03-01T15:59:55;18.17;;;14.68;;
52962;SDS011;38827;53.024;6.596;2023-03-01T16:02:22;18.15;;;14.98;;
52962;SDS011;38827;53.024;6.596;2023-03-01T16:04:49;17.27;;;13.80;;
52962;SDS011;38827;53.024;6.596;2023-03-01T16:07:18;20.10;;;15.40;;
52962;SDS011;38827;53.024;6.596;2023-03-01T16:09:57;18.42;;;14.52;;
52962;SDS011;38827;53.024;6.596;2023-03-01T16:12:32;23.25;;;14.02;;
52962;SDS011;38827;53.024;6.596;2023-03-01T16:15:00;18.88;;;14.38;;
52962;SDS011;38827;53.024;6.596;2023-03-01T16:17:53;17.83;;;14.38;;
52962;SDS011;38827;53.024;6.596;2023-03-01T16:20:28;21.80;;;15.18;;
52962;SDS011;38827;53.024;6.596;2023-03-01T16:23:05;20.52;;;16.05;;
52962;SDS011;38827;53.024;6.596;2023-03-01T16:25:52;20.98;;;15.48;;
52962;SDS011;38827;53.024;6.596;2023-03-01T16:28:29;24.13;;;16.85;;
52962;SDS011;38827;53.024;6.596;2023-03-01T16:31:10;20.50;;;16.15;;
52962;SDS011;38827;53.024;6.596;2023-03-01T16:33:36;26.65;;;17.92;;
52962;SDS011;38827;53.024;6.596;2023-03-01T16:36:28;22.90;;;17.55;;
52962;SDS011;38827;53.024;6.596;2023-03-01T16:39:16;24.58;;;17.98;;
52962;SDS011;38827;53.024;6.596;2023-03-01T16:41:55;21.58;;;15.93;;
52962;SDS011;38827;53.024;6.596;2023-03-01T16:44:24;24.60;;;16.48;;
52962;SDS011;38827;53.024;6.596;2023-03-01T16:47:13;21.08;;;16.10;;
52962;SDS011;38827;53.024;6.596;2023-03-01T16:49:41;22.60;;;16.70;;
52962;SDS011;38827;53.024;6.596;2023-03-01T16:52:27;22.08;;;16.23;;
52962;SDS011;38827;53.024;6.596;2023-03-01T16:57:36;23.60;;;17.95;;
52962;SDS011;38827;53.024;6.596;2023-03-01T17:00:15;24.80;;;17.58;;
52962;SDS011;38827;53.024;6.596;2023-03-01T17:02:50;24.75;;;17.67;;
52962;SDS011;38827;53.024;6.596;2023-03-01T17:05:36;27.02;;;19.40;;
52962;SDS011;38827;53.024;6.596;2023-03-01T17:14:28;25.40;;;17.98;;
52962;SDS011;38827;53.024;6.596;2023-03-01T17:17:05;26.23;;;18.35;;
52962;SDS011;38827;53.024;6.596;2023-03-01T17:19:37;28.90;;;19.58;;
52962;SDS011;38827;53.024;6.596;2023-03-01T17:22:29;24.60;;;18.42;;
52962;SDS011;38827;53.024;6.596;2023-03-01T17:25:00;30.33;;;19.25;;
52962;SDS011;38827;53.024;6.596;2023-03-01T17:27:51;28.50;;;18.50;;
52962;SDS011;38827;53.024;6.596;2023-03-01T17:32:45;27.77;;;18.42;;
52962;SDS011;38827;53.024;6.596;2023-03-01T17:35:11;26.27;;;18.08;;
52962;SDS011;38827;53.024;6.596;2023-03-01T17:37:48;26.60;;;18.27;;
52962;SDS011;38827;53.024;6.596;2023-03-01T17:40:48;24.65;;;17.40;;
52962;SDS011;38827;53.024;6.596;2023-03-01T17:43:19;24.67;;;17.70;;
52962;SDS011;38827;53.024;6.596;2023-03-01T17:45:44;22.90;;;17.15;;
52962;SDS011;38827;53.024;6.596;2023-03-01T17:48:24;24.50;;;17.23;;
52962;SDS011;38827;53.024;6.596;2023-03-01T17:50:57;25.45;;;18.33;;
52962;SDS011;38827;53.024;6.596;2023-03-01T17:53:25;25.95;;;18.33;;
52962;SDS011;38827;53.024;6.596;2023-03-01T17:56:00;26.17;;;17.67;;
52962;SDS011;38827;53.024;6.596;2023-03-01T17:58:36;27.17;;;18.63;;
52962;SDS011;38827;53.024;6.596;2023-03-01T18:01:27;26.45;;;18.25;;
52962;SDS011;38827;53.024;6.596;2023-03-01T18:03:53;24.80;;;18.23;;
52962;SDS011;38827;53.024;6.596;2023-03-01T18:06:20;26.90;;;18.70;;
52962;SDS011;38827;53.024;6.596;2023-03-01T18:09:17;26.65;;;18.92;;
52962;SDS011;38827;53.024;6.596;2023-03-01T18:11:59;27.42;;;19.60;;
52962;SDS011;38827;53.024;6.596;2023-03-01T18:14:27;26.30;;;18.50;;
52962;SDS011;38827;53.024;6.596;2023-03-01T18:22:37;25.45;;;18.58;;
52962;SDS011;38827;53.024;6.596;2023-03-01T18:25:07;29.05;;;18.65;;
52962;SDS011;38827;53.024;6.596;2023-03-01T18:27:54;29.90;;;19.35;;
52962;SDS011;38827;53.024;6.596;2023-03-01T18:30:20;23.85;;;19.20;;
52962;SDS011;38827;53.024;6.596;2023-03-01T18:32:48;28.00;;;19.52;;
52962;SDS011;38827;53.024;6.596;2023-03-01T18:38:49;25.05;;;19.00;;
52962;SDS011;38827;53.024;6.596;2023-03-01T18:41:31;27.98;;;18.98;;
52962;SDS011;38827;53.024;6.596;2023-03-01T18:47:45;26.90;;;19.92;;
52962;SDS011;38827;53.024;6.596;2023-03-01T18:53:58;25.48;;;18.77;;
52962;SDS011;38827;53.024;6.596;2023-03-01T19:00:13;27.27;;;19.85;;
52962;SDS011;38827;53.024;6.596;2023-03-01T19:02:45;27.80;;;20.23;;
52962;SDS011;38827;53.024;6.596;2023-03-01T19:05:13;29.08;;;20.90;;
52962;SDS011;38827;53.024;6.596;2023-03-01T19:07:56;26.40;;;20.42;;
52962;SDS011;38827;53.024;6.596;2023-03-01T19:10:40;28.40;;;21.75;;
52962;SDS011;38827;53.024;6.596;2023-03-01T19:13:06;28.23;;;21.27;;
52962;SDS011;38827;53.024;6.596;2023-03-01T19:15:36;30.42;;;21.88;;
52962;SDS011;38827;53.024;6.596;2023-03-01T19:18:07;29.40;;;21.52;;
52962;SDS011;38827;53.024;6.596;2023-03-01T19:20:35;27.25;;;21.13;;